createdAt,value
2022-12-03T00:01:28.824Z,1.83
2022-12-03T00:04:33.584Z,1.80
2022-12-03T00:07:38.361Z,1.81
2022-12-03T00:10:44.704Z,1.82
2022-12-03T00:13:48.372Z,1.79
2022-12-03T00:16:52.000Z,1.84
2022-12-03T00:19:55.309Z,1.87
2022-12-03T00:22:58.248Z,1.83
2022-12-03T00:26:00.674Z,1.83
2022-12-03T00:29:03.896Z,1.83
2022-12-03T00:32:07.496Z,1.83
2022-12-03T00:35:11.084Z,1.82
2022-12-03T00:38:14.770Z,1.78
2022-12-03T00:41:17.507Z,1.80
2022-12-03T00:44:20.312Z,1.82
2022-12-03T00:47:23.341Z,1.79
2022-12-03T00:50:26.013Z,1.79
2022-12-03T00:53:28.872Z,1.82
2022-12-03T00:56:31.318Z,1.81
2022-12-03T00:59:34.563Z,1.83
2022-12-03T01:02:37.184Z,1.83
2022-12-03T01:05:40.448Z,1.85
2022-12-03T01:08:44.625Z,1.82
2022-12-03T01:11:47.462Z,1.87
2022-12-03T01:14:50.776Z,1.85
2022-12-03T01:17:54.407Z,1.89
2022-12-03T01:20:57.143Z,1.91
2022-12-03T01:24:00.586Z,1.89
2022-12-03T01:27:03.104Z,1.91
2022-12-03T01:30:07.731Z,1.91
2022-12-03T01:33:10.493Z,1.93
2022-12-03T01:36:13.806Z,1.89
2022-12-03T01:39:16.664Z,1.94
2022-12-03T01:42:45.878Z,1.94
2022-12-03T01:45:48.338Z,1.91
2022-12-03T01:48:56.080Z,1.94
2022-12-03T01:51:59.286Z,1.97
2022-12-03T01:55:06.068Z,1.93
2022-12-03T01:58:12.875Z,1.92
2022-12-03T02:01:18.414Z,1.93
2022-12-03T02:04:23.646Z,1.94
2022-12-03T02:07:32.614Z,1.95
2022-12-03T02:10:37.916Z,1.95
2022-12-03T02:13:41.346Z,1.95
2022-12-03T02:16:45.946Z,1.97
2022-12-03T02:19:49.648Z,1.94
2022-12-03T02:22:55.274Z,1.94
2022-12-03T02:25:58.436Z,1.95
2022-12-03T02:29:02.580Z,1.97
2022-12-03T02:32:05.811Z,1.96
2022-12-03T02:35:17.080Z,1.99
2022-12-03T02:38:26.119Z,1.98
2022-12-03T02:41:49.085Z,1.99
2022-12-03T02:44:53.102Z,1.99
2022-12-03T02:48:00.472Z,1.96
2022-12-03T02:51:07.936Z,1.98
2022-12-03T02:54:11.977Z,1.98
2022-12-03T02:57:16.778Z,1.98
2022-12-03T03:00:20.214Z,2.01
2022-12-03T03:03:26.926Z,1.98
2022-12-03T03:06:29.637Z,2.03
2022-12-03T03:09:33.905Z,2.02
2022-12-03T03:12:39.450Z,1.99
2022-12-03T03:15:44.558Z,2.02
2022-12-03T03:18:48.945Z,2.00
2022-12-03T03:21:53.629Z,2.00
2022-12-03T03:24:56.528Z,1.99
2022-12-03T03:27:59.579Z,1.96
2022-12-03T03:31:05.058Z,1.97
2022-12-03T03:34:09.611Z,1.95
2022-12-03T03:37:12.780Z,1.97
2022-12-03T03:40:16.033Z,1.95
2022-12-03T03:43:21.721Z,1.97
2022-12-03T03:46:25.319Z,1.98
2022-12-03T03:49:29.763Z,2.00
2022-12-03T03:52:33.039Z,1.98
2022-12-03T03:55:39.415Z,1.94
2022-12-03T03:58:42.967Z,1.97
2022-12-03T04:01:46.395Z,1.96
2022-12-03T04:04:50.319Z,1.93
2022-12-03T04:07:54.243Z,1.92
2022-12-03T04:11:16.028Z,1.92
2022-12-03T04:14:18.434Z,1.86
2022-12-03T04:17:22.570Z,1.79
2022-12-03T04:20:25.512Z,1.70
2022-12-03T04:23:31.005Z,1.66
2022-12-03T04:26:52.905Z,1.67
2022-12-03T04:29:56.210Z,1.63
2022-12-03T04:33:18.283Z,1.57
2022-12-03T04:36:25.925Z,1.55
2022-12-03T04:39:29.130Z,1.47
2022-12-03T04:42:33.560Z,1.46
2022-12-03T04:45:36.438Z,1.41
2022-12-03T04:48:40.867Z,1.42
2022-12-03T04:51:44.249Z,1.44
2022-12-03T04:54:47.410Z,1.40
2022-12-03T04:57:50.765Z,1.38
2022-12-03T05:00:53.762Z,1.38
2022-12-03T05:03:56.345Z,1.32
2022-12-03T05:07:00.837Z,1.36
2022-12-03T05:10:08.587Z,1.40
2022-12-03T05:13:13.837Z,1.44
2022-12-03T05:16:18.142Z,1.46
2022-12-03T05:19:42.069Z,1.46
2022-12-03T05:22:45.657Z,1.49
2022-12-03T05:25:48.701Z,1.48
2022-12-03T05:28:51.346Z,1.52
2022-12-03T05:31:56.775Z,1.53
2022-12-03T05:34:59.968Z,1.55
2022-12-03T05:38:03.135Z,1.55
2022-12-03T05:41:26.062Z,1.56
2022-12-03T05:44:29.409Z,1.61
2022-12-03T05:47:32.054Z,1.62
2022-12-03T05:50:38.038Z,1.65
2022-12-03T05:53:49.762Z,1.70
2022-12-03T05:56:52.738Z,1.74
2022-12-03T05:59:55.981Z,1.73
2022-12-03T06:03:00.843Z,1.75
2022-12-03T06:06:05.273Z,1.76
2022-12-03T06:09:09.713Z,1.75
2022-12-03T06:12:13.237Z,1.75
2022-12-03T06:15:26.625Z,1.74
2022-12-03T06:18:33.071Z,1.75
2022-12-03T06:21:36.613Z,1.76
2022-12-03T06:24:41.066Z,1.76
2022-12-03T06:27:44.873Z,1.78
2022-12-03T06:30:48.701Z,1.78
2022-12-03T06:33:53.573Z,1.80
2022-12-03T06:36:57.962Z,1.84
2022-12-03T06:40:06.553Z,1.89
2022-12-03T06:43:11.994Z,1.88
2022-12-03T06:46:26.705Z,1.88
2022-12-03T06:49:30.459Z,1.92
2022-12-03T06:52:35.729Z,1.98
2022-12-03T06:55:41.094Z,1.98
2022-12-03T06:58:48.955Z,2.01
2022-12-03T07:01:53.588Z,2.03
2022-12-03T07:04:57.425Z,2.07
2022-12-03T07:08:03.686Z,2.06
2022-12-03T07:11:31.737Z,2.10
2022-12-03T07:14:41.285Z,2.13
2022-12-03T07:17:52.050Z,2.16
2022-12-03T07:20:55.843Z,2.23
2022-12-03T07:24:00.056Z,2.22
2022-12-03T07:27:06.108Z,2.24
2022-12-03T07:30:15.550Z,2.29
2022-12-03T07:33:32.523Z,2.35
2022-12-03T07:36:45.847Z,2.37
2022-12-03T07:39:58.527Z,2.35
2022-12-03T07:43:09.542Z,2.38
2022-12-03T07:46:13.879Z,2.48
2022-12-03T07:49:20.333Z,2.58
2022-12-03T07:52:26.096Z,2.60
2022-12-03T07:55:48.411Z,2.74
2022-12-03T07:58:57.991Z,2.81
2022-12-03T08:02:16.813Z,2.87
2022-12-03T08:05:26.923Z,2.93
2022-12-03T08:08:38.029Z,2.79
2022-12-03T08:11:45.267Z,2.73
2022-12-03T08:14:57.759Z,2.78
2022-12-03T08:18:27.894Z,2.73
2022-12-03T08:21:36.572Z,2.83
2022-12-03T08:24:39.999Z,2.84
2022-12-03T08:27:44.675Z,2.84
2022-12-03T08:31:14.592Z,2.89
2022-12-03T08:34:22.633Z,2.95
2022-12-03T08:37:30.335Z,2.91
2022-12-03T08:40:37.593Z,2.93
2022-12-03T08:43:50.404Z,2.98
2022-12-03T08:47:03.471Z,3.05
2022-12-03T08:50:41.597Z,3.19
2022-12-03T08:53:48.885Z,3.27
2022-12-03T08:57:01.898Z,3.41
2022-12-03T09:00:21.546Z,3.35
2022-12-03T09:03:34.013Z,3.35
2022-12-03T09:06:51.762Z,3.28
2022-12-03T09:10:05.731Z,3.05
2022-12-03T09:13:19.710Z,3.05
2022-12-03T09:16:23.928Z,3.07
2022-12-03T09:19:34.774Z,3.21
2022-12-03T09:22:38.898Z,3.25
2022-12-03T09:25:52.215Z,3.51
2022-12-03T09:28:55.824Z,3.45
2022-12-03T09:32:15.116Z,3.39
2022-12-03T09:35:26.530Z,3.34
2022-12-03T09:38:32.597Z,3.25
2022-12-03T09:41:51.985Z,3.30
2022-12-03T09:44:57.177Z,3.46
2022-12-03T09:48:03.906Z,3.58
2022-12-03T09:51:09.605Z,3.81
2022-12-03T09:54:24.801Z,3.78
2022-12-03T09:57:38.385Z,3.90
2022-12-03T10:00:47.523Z,4.01
2022-12-03T10:03:51.760Z,4.36
2022-12-03T10:06:57.720Z,4.84
2022-12-03T10:10:08.646Z,5.06
2022-12-03T10:13:37.297Z,4.97
2022-12-03T10:16:41.575Z,4.87
2022-12-03T10:20:18.812Z,4.75
2022-12-03T10:23:28.645Z,4.86
2022-12-03T10:26:41.826Z,4.86
2022-12-03T10:29:58.640Z,5.04
2022-12-03T10:33:18.876Z,5.06
2022-12-03T10:36:34.845Z,5.08
2022-12-03T10:40:00.289Z,5.12
2022-12-03T10:43:20.172Z,5.14
2022-12-03T10:46:33.079Z,5.19
2022-12-03T10:49:41.811Z,5.28
2022-12-03T10:52:49.563Z,5.51
2022-12-03T10:56:09.472Z,5.60
2022-12-03T10:59:19.584Z,5.69
2022-12-03T11:02:29.677Z,5.65
2022-12-03T11:05:33.874Z,5.64
2022-12-03T11:08:41.529Z,5.55
2022-12-03T11:11:48.541Z,5.65
2022-12-03T11:14:57.969Z,5.67
2022-12-03T11:18:02.890Z,5.65
2022-12-03T11:21:09.826Z,5.75
2022-12-03T11:24:21.015Z,5.95
2022-12-03T11:27:32.563Z,5.97
2022-12-03T11:30:51.345Z,5.99
2022-12-03T11:34:21.559Z,6.00
2022-12-03T11:37:31.592Z,6.00
2022-12-03T11:40:39.377Z,6.10
2022-12-03T11:44:00.450Z,6.12
2022-12-03T11:47:17.729Z,6.14
2022-12-03T11:50:57.727Z,6.09
2022-12-03T11:54:09.498Z,6.17
2022-12-03T11:57:28.319Z,6.41
2022-12-03T12:00:35.810Z,6.38
2022-12-03T12:03:49.047Z,6.29
2022-12-03T12:07:01.681Z,6.36
2022-12-03T12:10:42.445Z,6.47
2022-12-03T12:13:55.554Z,6.49
2022-12-03T12:17:03.322Z,6.42
2022-12-03T12:20:23.728Z,6.42
2022-12-03T12:23:29.617Z,6.36
2022-12-03T12:26:50.660Z,6.24
2022-12-03T12:30:13.674Z,6.22
2022-12-03T12:33:29.372Z,6.14
2022-12-03T12:36:51.423Z,6.19
2022-12-03T12:40:03.819Z,6.18
2022-12-03T12:43:15.530Z,6.17
2022-12-03T12:46:47.376Z,6.12
2022-12-03T12:49:58.595Z,6.11
2022-12-03T12:53:12.788Z,6.12
2022-12-03T12:56:25.834Z,6.11
2022-12-03T12:59:36.601Z,6.17
2022-12-03T13:02:50.752Z,6.18
2022-12-03T13:06:05.400Z,6.19
2022-12-03T13:09:31.276Z,6.16
2022-12-03T13:12:44.708Z,6.17
2022-12-03T13:16:05.394Z,6.16
2022-12-03T13:19:22.425Z,6.13
2022-12-03T13:22:26.100Z,6.12
2022-12-03T13:25:59.297Z,6.10
2022-12-03T13:29:07.406Z,6.11
2022-12-03T13:32:29.395Z,6.11
2022-12-03T13:35:41.525Z,6.10
2022-12-03T13:38:50.448Z,6.09
2022-12-03T13:42:14.630Z,6.05
2022-12-03T13:45:37.222Z,6.03
2022-12-03T13:48:43.364Z,6.01
2022-12-03T13:51:47.444Z,5.98
2022-12-03T13:54:59.746Z,5.97
2022-12-03T13:58:10.881Z,5.93
2022-12-03T14:01:24.024Z,5.93
2022-12-03T14:04:31.990Z,5.87
2022-12-03T14:07:47.843Z,5.83
2022-12-03T14:10:55.569Z,5.79
2022-12-03T14:14:02.161Z,5.75
2022-12-03T14:17:07.853Z,5.72
2022-12-03T14:20:16.505Z,5.69
2022-12-03T14:23:20.874Z,5.67
2022-12-03T14:26:30.479Z,5.63
2022-12-03T14:29:34.991Z,5.59
2022-12-03T14:32:39.699Z,5.58
2022-12-03T14:35:45.033Z,5.51
2022-12-03T14:39:02.635Z,5.50
2022-12-03T14:42:15.453Z,5.42
2022-12-03T14:45:28.585Z,5.35
2022-12-03T14:48:42.002Z,5.29
2022-12-03T14:51:47.315Z,5.24
2022-12-03T14:54:57.633Z,5.19
2022-12-03T14:58:04.582Z,5.12
2022-12-03T15:01:13.723Z,5.06
2022-12-03T15:04:23.403Z,5.03
2022-12-03T15:07:34.776Z,5.01
2022-12-03T15:10:43.675Z,4.95
2022-12-03T15:13:48.461Z,4.91
2022-12-03T15:16:55.219Z,4.86
2022-12-03T15:20:12.644Z,4.80
2022-12-03T15:23:22.486Z,4.78
2022-12-03T15:26:33.496Z,4.76
2022-12-03T15:29:37.688Z,4.71
2022-12-03T15:32:56.356Z,4.66
2022-12-03T15:36:06.202Z,4.62
2022-12-03T15:39:10.754Z,4.52
2022-12-03T15:42:23.403Z,4.45
2022-12-03T15:45:27.540Z,4.43
2022-12-03T15:48:30.638Z,4.39
2022-12-03T15:51:34.392Z,4.38
2022-12-03T15:54:42.477Z,4.34
2022-12-03T15:57:49.349Z,4.30
2022-12-03T16:00:52.904Z,4.26
2022-12-03T16:03:58.086Z,4.24
2022-12-03T16:07:10.736Z,4.18
2022-12-03T16:10:26.039Z,4.11
2022-12-03T16:13:36.624Z,4.06
2022-12-03T16:16:48.751Z,4.03
2022-12-03T16:19:56.832Z,4.01
2022-12-03T16:23:00.180Z,3.96
2022-12-03T16:26:04.554Z,3.96
2022-12-03T16:29:15.243Z,3.94
2022-12-03T16:32:32.417Z,3.94
2022-12-03T16:35:38.108Z,3.91
2022-12-03T16:38:43.676Z,3.93
2022-12-03T16:41:54.448Z,3.93
2022-12-03T16:45:12.463Z,3.95
2022-12-03T16:48:23.608Z,3.91
2022-12-03T16:51:30.398Z,3.90
2022-12-03T16:54:43.553Z,3.92
2022-12-03T16:57:46.461Z,3.93
2022-12-03T17:00:58.166Z,3.90
2022-12-03T17:04:15.635Z,3.87
2022-12-03T17:07:22.655Z,3.85
2022-12-03T17:10:28.736Z,3.83
2022-12-03T17:13:35.204Z,3.79
2022-12-03T17:16:52.579Z,3.82
2022-12-03T17:19:58.582Z,3.79
2022-12-03T17:23:04.524Z,3.77
2022-12-03T17:26:15.359Z,3.75
2022-12-03T17:29:37.535Z,3.70
2022-12-03T17:32:50.498Z,3.67
2022-12-03T17:35:58.620Z,3.63
2022-12-03T17:39:05.674Z,3.58
2022-12-03T17:42:12.671Z,3.56
2022-12-03T17:45:17.752Z,3.49
2022-12-03T17:48:21.463Z,3.46
2022-12-03T17:51:31.521Z,3.47
2022-12-03T17:55:08.390Z,3.43
2022-12-03T17:58:06.045Z,3.38
2022-12-03T18:01:22.474Z,3.35
2022-12-03T18:04:33.574Z,3.31
2022-12-03T18:07:43.671Z,3.25
2022-12-03T18:10:53.528Z,3.23
2022-12-03T18:14:11.439Z,3.23
2022-12-03T18:17:24.448Z,3.21
2022-12-03T18:20:35.118Z,3.21
2022-12-03T18:23:51.387Z,3.18
2022-12-03T18:27:01.855Z,3.17
2022-12-03T18:30:08.804Z,3.18
2022-12-03T18:33:16.367Z,3.15
2022-12-03T18:36:25.477Z,3.14
2022-12-03T18:39:42.430Z,3.09
2022-12-03T18:42:49.636Z,3.08
2022-12-03T18:46:04.591Z,3.04
2022-12-03T18:49:16.025Z,3.04
2022-12-03T18:52:22.599Z,3.01
2022-12-03T18:55:37.409Z,3.02
2022-12-03T18:58:44.649Z,3.00
2022-12-03T19:01:49.619Z,3.04
2022-12-03T19:04:56.489Z,3.06
2022-12-03T19:08:18.594Z,3.05
2022-12-03T19:11:30.719Z,3.06
2022-12-03T19:14:57.313Z,3.04
2022-12-03T19:18:01.412Z,3.03
2022-12-03T19:21:09.334Z,3.03
2022-12-03T19:24:24.291Z,2.99
2022-12-03T19:27:38.414Z,2.97
2022-12-03T19:30:46.532Z,2.98
2022-12-03T19:33:59.627Z,2.95
2022-12-03T19:37:14.290Z,2.95
2022-12-03T19:40:25.445Z,2.93
2022-12-03T19:43:39.311Z,2.92
2022-12-03T19:46:54.454Z,2.92
2022-12-03T19:49:59.141Z,2.93
2022-12-03T19:53:17.568Z,2.92
2022-12-03T19:56:20.982Z,2.91
2022-12-03T19:59:39.451Z,2.90
2022-12-03T20:02:50.460Z,2.89
2022-12-03T20:06:11.418Z,2.87
2022-12-03T20:09:18.106Z,2.89
2022-12-03T20:12:25.393Z,2.90
2022-12-03T20:15:32.469Z,2.86
2022-12-03T20:18:37.597Z,2.81
2022-12-03T20:22:02.540Z,2.76
2022-12-03T20:25:21.452Z,2.73
2022-12-03T20:28:30.426Z,2.70
2022-12-03T20:31:42.508Z,2.68
2022-12-03T20:34:57.417Z,2.65
2022-12-03T20:38:01.557Z,2.68
2022-12-03T20:41:17.305Z,2.70
2022-12-03T20:44:24.502Z,2.70
2022-12-03T20:47:37.547Z,2.68
2022-12-03T20:50:42.232Z,2.66
2022-12-03T20:53:53.408Z,2.67
2022-12-03T20:57:11.318Z,2.68
2022-12-03T21:00:16.371Z,2.67
2022-12-03T21:03:30.300Z,2.68
2022-12-03T21:06:42.320Z,2.68
2022-12-03T21:09:51.653Z,2.68
2022-12-03T21:12:56.449Z,2.71
2022-12-03T21:16:07.838Z,2.72
2022-12-03T21:19:20.492Z,2.75
2022-12-03T21:22:24.349Z,2.75
2022-12-03T21:25:31.934Z,2.77
2022-12-03T21:28:46.444Z,2.83
2022-12-03T21:31:57.327Z,2.87
2022-12-03T21:35:00.674Z,2.90
2022-12-03T21:38:08.623Z,2.93
2022-12-03T21:41:15.787Z,2.96
2022-12-03T21:44:27.521Z,2.97
2022-12-03T21:47:37.458Z,3.02
2022-12-03T21:50:41.602Z,3.11
2022-12-03T21:53:46.921Z,3.11
2022-12-03T21:56:54.299Z,3.12
2022-12-03T21:59:57.987Z,3.13
2022-12-03T22:03:02.909Z,3.14
2022-12-03T22:06:09.446Z,3.18
2022-12-03T22:09:24.831Z,3.13
2022-12-03T22:12:32.829Z,3.10
2022-12-03T22:15:38.881Z,3.02
2022-12-03T22:18:43.733Z,2.99
2022-12-03T22:21:47.711Z,2.95
2022-12-03T22:24:55.387Z,2.89
2022-12-03T22:28:00.770Z,2.87
2022-12-03T22:31:09.837Z,2.82
2022-12-03T22:34:13.156Z,2.83
2022-12-03T22:37:17.836Z,2.79
2022-12-03T22:40:21.722Z,2.79
2022-12-03T22:43:25.557Z,2.77
2022-12-03T22:46:29.604Z,2.76
2022-12-03T22:49:33.123Z,2.72
2022-12-03T22:52:37.872Z,2.73
2022-12-03T22:55:42.705Z,2.64
2022-12-03T22:58:47.078Z,2.62
2022-12-03T23:01:51.825Z,2.58
2022-12-03T23:04:57.499Z,2.53
2022-12-03T23:08:00.711Z,2.49
2022-12-03T23:11:05.890Z,2.47
2022-12-03T23:14:08.980Z,2.48
2022-12-03T23:17:11.622Z,2.41
2022-12-03T23:20:15.049Z,2.43
2022-12-03T23:23:26.192Z,2.43
2022-12-03T23:26:29.912Z,2.41
2022-12-03T23:29:36.258Z,2.37
2022-12-03T23:32:42.598Z,2.35
2022-12-03T23:35:55.563Z,2.35
2022-12-03T23:39:00.801Z,2.29
2022-12-03T23:42:04.477Z,2.29
2022-12-03T23:45:08.021Z,2.28
2022-12-03T23:48:11.439Z,2.26
2022-12-03T23:51:17.493Z,2.30
2022-12-03T23:54:20.010Z,2.31
2022-12-03T23:57:23.023Z,2.29
